createdAt,value
2022-08-24T00:02:01.272Z,2.20
2022-08-24T00:04:32.037Z,1.98
2022-08-24T00:07:00.976Z,2.35
2022-08-24T00:09:29.649Z,2.53
2022-08-24T00:11:58.275Z,2.28
2022-08-24T00:14:28.260Z,2.22
2022-08-24T00:16:57.733Z,2.20
2022-08-24T00:19:26.462Z,2.72
2022-08-24T00:21:55.001Z,2.55
2022-08-24T00:24:23.597Z,2.05
2022-08-24T00:26:52.188Z,2.33
2022-08-24T00:29:20.790Z,2.45
2022-08-24T00:31:51.076Z,2.50
2022-08-24T00:34:19.998Z,2.50
2022-08-24T00:36:48.588Z,2.10
2022-08-24T00:39:17.172Z,2.45
2022-08-24T00:41:46.565Z,2.15
2022-08-24T00:44:16.781Z,1.92
2022-08-24T00:46:47.887Z,2.00
2022-08-24T00:49:23.485Z,2.38
2022-08-24T00:51:55.587Z,2.33
2022-08-24T00:54:25.169Z,2.63
2022-08-24T00:56:56.278Z,2.08
2022-08-24T00:59:27.493Z,1.83
2022-08-24T01:01:57.901Z,2.47
2022-08-24T01:04:33.506Z,2.17
2022-08-24T01:07:04.607Z,1.95
2022-08-24T01:09:33.202Z,1.75
2022-08-24T01:12:02.441Z,2.22
2022-08-24T01:14:31.662Z,2.00
2022-08-24T01:17:17.874Z,2.08
2022-08-24T01:19:50.159Z,2.10
2022-08-24T01:22:27.651Z,2.42
2022-08-24T01:24:58.040Z,2.03
2022-08-24T01:27:28.173Z,2.13
2022-08-24T01:29:57.583Z,2.00
2022-08-24T01:32:28.423Z,1.90
2022-08-24T01:34:57.127Z,2.10
2022-08-24T01:37:25.976Z,2.00
2022-08-24T01:39:57.474Z,1.88
2022-08-24T01:42:30.074Z,2.20
2022-08-24T01:44:58.939Z,1.90
2022-08-24T01:47:27.503Z,1.83
2022-08-24T01:49:58.583Z,2.28
2022-08-24T01:52:43.417Z,1.98
2022-08-24T01:55:19.795Z,1.88
2022-08-24T01:57:53.194Z,1.75
2022-08-24T02:00:22.141Z,2.45
2022-08-24T02:02:53.333Z,1.90
2022-08-24T02:05:22.220Z,1.77
2022-08-24T02:07:50.848Z,1.90
2022-08-24T02:10:19.810Z,2.10
2022-08-24T02:12:58.683Z,2.28
2022-08-24T02:15:29.630Z,2.08
2022-08-24T02:17:58.834Z,1.95
2022-08-24T02:20:28.405Z,2.17
2022-08-24T02:22:57.182Z,1.90
2022-08-24T02:25:27.568Z,2.10
2022-08-24T02:27:58.110Z,2.00
2022-08-24T02:30:27.576Z,1.88
2022-08-24T02:32:57.144Z,1.70
2022-08-24T02:35:25.855Z,1.83
2022-08-24T02:37:54.403Z,1.80
2022-08-24T02:40:24.368Z,1.63
2022-08-24T02:42:53.190Z,2.28
2022-08-24T02:45:24.613Z,2.20
2022-08-24T02:47:53.764Z,2.13
2022-08-24T02:50:29.459Z,1.98
2022-08-24T02:52:59.453Z,1.77
2022-08-24T02:55:28.322Z,1.60
2022-08-24T02:57:57.210Z,1.85
2022-08-24T03:00:27.882Z,1.70
2022-08-24T03:02:57.800Z,2.20
2022-08-24T03:05:26.849Z,1.80
2022-08-24T03:07:55.654Z,1.92
2022-08-24T03:10:24.874Z,2.58
2022-08-24T03:12:54.090Z,1.95
2022-08-24T03:15:29.969Z,2.08
2022-08-24T03:17:58.624Z,2.00
2022-08-24T03:20:28.385Z,2.10
2022-08-24T03:22:58.831Z,1.90
2022-08-24T03:25:28.087Z,2.38
2022-08-24T03:27:56.633Z,2.38
2022-08-24T03:30:25.423Z,2.65
2022-08-24T03:32:56.047Z,2.72
2022-08-24T03:35:24.647Z,2.45
2022-08-24T03:37:54.274Z,2.33
2022-08-24T03:40:24.668Z,2.42
2022-08-24T03:42:57.173Z,2.90
2022-08-24T03:45:25.888Z,2.58
2022-08-24T03:47:56.424Z,2.83
2022-08-24T03:50:25.601Z,2.67
2022-08-24T03:52:54.198Z,2.80
2022-08-24T03:55:22.928Z,2.50
2022-08-24T03:57:51.476Z,3.10
2022-08-24T04:00:20.057Z,3.10
2022-08-24T04:03:00.087Z,3.03
2022-08-24T04:05:29.374Z,2.60
2022-08-24T04:08:03.559Z,2.70
2022-08-24T04:10:32.233Z,2.55
2022-08-24T04:13:01.582Z,2.65
2022-08-24T04:15:32.158Z,2.45
2022-08-24T04:18:02.146Z,2.38
2022-08-24T04:20:31.687Z,2.55
2022-08-24T04:23:00.653Z,2.70
2022-08-24T04:25:30.017Z,2.63
2022-08-24T04:27:59.202Z,3.08
2022-08-24T04:30:27.771Z,2.70
2022-08-24T04:33:12.134Z,3.40
2022-08-24T04:35:41.811Z,3.22
2022-08-24T04:38:10.809Z,7.65
2022-08-24T04:40:40.512Z,8.77
2022-08-24T04:43:10.463Z,5.93
2022-08-24T04:45:40.890Z,4.80
2022-08-24T04:48:09.585Z,4.22
2022-08-24T04:50:40.357Z,3.90
2022-08-24T04:53:09.299Z,3.28
2022-08-24T04:55:43.940Z,3.40
2022-08-24T04:58:13.051Z,3.30
2022-08-24T05:00:42.060Z,3.78
2022-08-24T05:03:11.229Z,3.47
2022-08-24T05:05:43.503Z,3.22
2022-08-24T05:08:12.396Z,3.20
2022-08-24T05:10:41.924Z,3.25
2022-08-24T05:13:10.907Z,3.13
2022-08-24T05:15:42.988Z,3.67
2022-08-24T05:18:13.291Z,3.45
2022-08-24T05:20:44.118Z,3.15
2022-08-24T05:23:13.307Z,3.28
2022-08-24T05:25:42.704Z,2.88
2022-08-24T05:28:11.302Z,2.90
2022-08-24T05:30:42.740Z,2.90
2022-08-24T05:33:11.603Z,3.00
2022-08-24T05:35:41.765Z,3.22
2022-08-24T05:38:14.364Z,2.97
2022-08-24T05:40:43.898Z,3.10
2022-08-24T05:43:12.810Z,2.90
2022-08-24T05:45:44.266Z,3.28
2022-08-24T05:48:13.302Z,3.40
2022-08-24T05:51:14.142Z,2.97
2022-08-24T05:53:56.358Z,3.35
2022-08-24T05:56:31.843Z,3.03
2022-08-24T05:59:02.195Z,3.30
2022-08-24T06:01:31.616Z,3.17
2022-08-24T06:04:01.129Z,3.10
2022-08-24T06:06:30.967Z,3.53
2022-08-24T06:09:02.530Z,3.00
2022-08-24T06:11:33.495Z,3.38
2022-08-24T06:14:07.217Z,3.42
2022-08-24T06:16:37.141Z,3.33
2022-08-24T06:19:06.942Z,3.20
2022-08-24T06:21:35.537Z,3.55
2022-08-24T06:24:06.388Z,3.50
2022-08-24T06:26:53.241Z,3.25
2022-08-24T06:29:22.590Z,3.38
2022-08-24T06:31:56.266Z,3.05
2022-08-24T06:34:27.012Z,2.92
2022-08-24T06:36:55.795Z,3.22
2022-08-24T06:39:29.049Z,2.72
2022-08-24T06:41:58.554Z,3.15
2022-08-24T06:44:36.051Z,2.45
2022-08-24T06:47:22.131Z,2.67
2022-08-24T06:49:59.930Z,2.70
2022-08-24T06:52:30.116Z,2.53
2022-08-24T06:55:00.741Z,2.42
2022-08-24T06:57:31.539Z,2.65
2022-08-24T07:00:00.329Z,2.58
2022-08-24T07:02:29.001Z,2.50
2022-08-24T07:04:57.661Z,2.88
2022-08-24T07:08:05.384Z,2.60
2022-08-24T07:10:36.445Z,2.40
2022-08-24T07:13:05.646Z,2.33
2022-08-24T07:15:35.666Z,2.33
2022-08-24T07:18:13.611Z,2.15
2022-08-24T07:20:45.825Z,2.40
2022-08-24T07:23:20.145Z,2.28
2022-08-24T07:25:55.481Z,2.10
2022-08-24T07:28:31.608Z,2.20
2022-08-24T07:31:02.094Z,2.30
2022-08-24T07:33:34.418Z,2.15
2022-08-24T07:36:03.923Z,2.60
2022-08-24T07:38:33.981Z,2.38
2022-08-24T07:41:36.447Z,2.53
2022-08-24T07:43:53.280Z,2.35
2022-08-24T07:46:22.887Z,2.50
2022-08-24T07:49:04.963Z,2.58
2022-08-24T07:51:44.996Z,2.10
2022-08-24T07:54:15.678Z,2.35
2022-08-24T07:56:47.217Z,2.33
2022-08-24T07:59:15.818Z,2.28
2022-08-24T08:01:44.983Z,2.20
2022-08-24T08:04:14.197Z,2.25
2022-08-24T08:06:43.088Z,3.05
2022-08-24T08:09:11.849Z,2.50
2022-08-24T08:11:42.111Z,2.60
2022-08-24T08:14:12.080Z,2.35
2022-08-24T08:16:41.239Z,2.13
2022-08-24T08:19:10.477Z,2.40
2022-08-24T08:22:00.987Z,1.98
2022-08-24T08:24:30.009Z,2.30
2022-08-24T08:26:59.622Z,2.40
2022-08-24T08:29:34.454Z,2.13
2022-08-24T08:32:03.948Z,2.38
2022-08-24T08:34:32.679Z,2.15
2022-08-24T08:37:02.941Z,2.30
2022-08-24T08:39:32.306Z,1.90
2022-08-24T08:42:14.342Z,2.20
2022-08-24T08:44:50.755Z,2.20
2022-08-24T08:47:25.127Z,1.75
2022-08-24T08:50:11.785Z,2.03
2022-08-24T08:52:55.849Z,2.38
2022-08-24T08:55:29.384Z,2.03
2022-08-24T08:58:15.234Z,2.03
2022-08-24T09:00:51.863Z,2.15
2022-08-24T09:03:39.077Z,2.10
2022-08-24T09:06:37.111Z,1.80
2022-08-24T09:09:11.886Z,1.95
2022-08-24T09:11:48.252Z,1.70
2022-08-24T09:14:30.429Z,1.50
2022-08-24T09:17:13.134Z,2.00
2022-08-24T09:19:52.086Z,1.67
2022-08-24T09:22:21.973Z,1.92
2022-08-24T09:25:08.521Z,1.48
2022-08-24T09:27:54.601Z,2.10
2022-08-24T09:30:24.775Z,1.98
2022-08-24T09:33:00.225Z,2.10
2022-08-24T09:35:37.708Z,2.17
2022-08-24T09:38:12.663Z,2.05
2022-08-24T09:40:46.347Z,1.73
2022-08-24T09:43:33.431Z,1.58
2022-08-24T09:46:16.867Z,1.80
2022-08-24T09:49:03.218Z,1.60
2022-08-24T09:52:01.796Z,1.75
2022-08-24T09:54:58.590Z,1.33
2022-08-24T09:57:50.475Z,1.48
2022-08-24T10:00:23.590Z,1.33
2022-08-24T10:03:04.859Z,1.48
2022-08-24T10:05:37.455Z,1.20
2022-08-24T10:08:11.690Z,1.50
2022-08-24T10:10:48.399Z,1.80
2022-08-24T10:13:22.034Z,2.10
2022-08-24T10:15:56.931Z,2.33
2022-08-24T10:18:35.309Z,2.17
2022-08-24T10:21:16.857Z,2.20
2022-08-24T10:24:03.386Z,2.03
2022-08-24T10:26:39.686Z,2.00
2022-08-24T10:29:14.053Z,1.75
2022-08-24T10:31:49.448Z,2.30
2022-08-24T10:34:27.360Z,2.10
2022-08-24T10:37:10.784Z,2.05
2022-08-24T10:39:53.349Z,1.98
2022-08-24T10:42:59.659Z,2.10
2022-08-24T10:45:37.122Z,2.22
2022-08-24T10:48:26.800Z,2.05
2022-08-24T10:50:58.387Z,1.75
2022-08-24T10:53:28.296Z,1.90
2022-08-24T10:56:08.235Z,1.88
2022-08-24T10:58:49.470Z,1.60
2022-08-24T11:01:21.427Z,1.52
2022-08-24T11:03:55.598Z,1.42
2022-08-24T11:06:25.241Z,1.52
2022-08-24T11:08:55.297Z,1.52
2022-08-24T11:11:26.279Z,1.30
2022-08-24T11:14:00.394Z,1.30
2022-08-24T11:16:31.454Z,1.30
2022-08-24T11:19:01.411Z,1.50
2022-08-24T11:21:34.988Z,1.30
2022-08-24T11:24:04.286Z,1.20
2022-08-24T11:26:33.328Z,1.10
2022-08-24T11:29:06.036Z,1.20
2022-08-24T11:31:36.531Z,1.73
2022-08-24T11:34:08.093Z,1.25
2022-08-24T11:36:38.109Z,1.25
2022-08-24T11:39:12.654Z,0.90
2022-08-24T11:41:49.626Z,1.35
2022-08-24T11:44:27.906Z,1.25
2022-08-24T11:47:01.498Z,1.65
2022-08-24T11:49:48.147Z,1.50
2022-08-24T11:52:19.704Z,1.42
2022-08-24T11:54:52.748Z,1.25
2022-08-24T11:57:23.688Z,1.25
2022-08-24T11:59:56.965Z,1.02
2022-08-24T12:02:28.614Z,1.00
2022-08-24T12:04:59.847Z,1.02
2022-08-24T12:07:41.592Z,1.38
2022-08-24T12:10:16.947Z,1.08
2022-08-24T12:12:47.111Z,1.15
2022-08-24T12:15:19.447Z,1.00
2022-08-24T12:17:50.706Z,1.00
2022-08-24T12:20:25.788Z,1.00
2022-08-24T12:22:55.950Z,1.10
2022-08-24T12:25:42.399Z,0.90
2022-08-24T12:28:11.777Z,0.93
2022-08-24T12:30:41.945Z,1.00
2022-08-24T12:33:13.828Z,0.75
2022-08-24T12:35:45.298Z,0.88
2022-08-24T12:38:18.490Z,0.90
2022-08-24T12:40:52.576Z,1.00
2022-08-24T12:43:23.256Z,0.95
2022-08-24T12:45:53.906Z,0.93
2022-08-24T12:48:24.121Z,1.10
2022-08-24T12:51:03.153Z,1.10
2022-08-24T12:53:45.571Z,1.00
2022-08-24T12:56:38.628Z,1.10
2022-08-24T12:59:17.011Z,1.00
2022-08-24T13:01:48.326Z,1.08
2022-08-24T13:04:20.070Z,1.02
2022-08-24T13:06:54.223Z,1.00
2022-08-24T13:09:31.752Z,1.00
2022-08-24T13:12:01.771Z,0.98
2022-08-24T13:14:31.186Z,1.00
2022-08-24T13:17:12.870Z,0.85
2022-08-24T13:19:43.176Z,1.15
2022-08-24T13:22:30.340Z,1.20
2022-08-24T13:25:03.577Z,1.13
2022-08-24T13:27:50.657Z,1.00
2022-08-24T13:30:34.234Z,1.15
2022-08-24T13:33:07.365Z,1.17
2022-08-24T13:35:54.792Z,1.05
2022-08-24T13:38:31.784Z,1.00
2022-08-24T13:41:02.850Z,1.30
2022-08-24T13:43:34.659Z,1.02
2022-08-24T13:46:13.357Z,1.20
2022-08-24T13:48:49.898Z,1.20
2022-08-24T13:51:27.293Z,1.10
2022-08-24T13:54:05.348Z,1.13
2022-08-24T13:56:47.690Z,1.20
2022-08-24T13:59:18.861Z,1.33
2022-08-24T14:02:01.057Z,1.30
2022-08-24T14:04:43.343Z,1.10
2022-08-24T14:07:15.728Z,1.20
2022-08-24T14:09:50.489Z,1.23
2022-08-24T14:12:24.027Z,1.08
2022-08-24T14:15:03.922Z,1.00
2022-08-24T14:18:02.067Z,1.27
2022-08-24T14:20:49.461Z,1.02
2022-08-24T14:23:35.581Z,1.05
2022-08-24T14:26:26.116Z,1.20
2022-08-24T14:28:55.022Z,1.38
2022-08-24T14:31:28.330Z,1.23
2022-08-24T14:34:02.447Z,1.10
2022-08-24T14:36:43.119Z,1.38
2022-08-24T14:39:20.798Z,1.50
2022-08-24T14:41:55.719Z,1.60
2022-08-24T14:44:30.410Z,1.73
2022-08-24T14:47:04.498Z,1.25
2022-08-24T14:49:37.037Z,1.63
2022-08-24T14:52:11.125Z,1.20
2022-08-24T14:54:46.222Z,1.17
2022-08-24T14:57:21.442Z,1.23
2022-08-24T14:59:58.518Z,1.42
2022-08-24T15:02:43.568Z,1.38
2022-08-24T15:05:18.186Z,1.40
2022-08-24T15:07:54.343Z,1.52
2022-08-24T15:10:26.607Z,1.58
2022-08-24T15:13:02.846Z,1.60
2022-08-24T15:15:34.602Z,1.55
2022-08-24T15:18:09.413Z,1.25
2022-08-24T15:20:43.903Z,1.20
2022-08-24T15:23:15.681Z,1.48
2022-08-24T15:25:47.129Z,1.60
2022-08-24T15:28:16.633Z,1.48
2022-08-24T15:30:55.035Z,1.70
2022-08-24T15:33:23.984Z,1.40
2022-08-24T15:35:53.724Z,1.30
2022-08-24T15:38:24.007Z,1.30
2022-08-24T15:40:55.637Z,1.27
2022-08-24T15:43:24.571Z,1.30
2022-08-24T15:45:53.803Z,1.48
2022-08-24T15:48:25.846Z,1.70
2022-08-24T15:50:55.838Z,1.10
2022-08-24T15:53:29.908Z,1.35
2022-08-24T15:56:00.746Z,1.40
2022-08-24T15:58:33.594Z,1.38
2022-08-24T16:01:21.150Z,1.80
2022-08-24T16:03:51.938Z,1.30
2022-08-24T16:06:35.455Z,1.45
2022-08-24T16:09:05.767Z,1.50
2022-08-24T16:11:38.894Z,1.48
2022-08-24T16:14:08.385Z,1.48
2022-08-24T16:16:39.039Z,1.60
2022-08-24T16:19:09.727Z,1.30
2022-08-24T16:21:39.838Z,1.45
2022-08-24T16:24:10.047Z,1.70
2022-08-24T16:26:58.203Z,1.73
2022-08-24T16:29:46.030Z,1.60
2022-08-24T16:32:22.334Z,1.60
2022-08-24T16:34:58.394Z,1.65
2022-08-24T16:37:27.042Z,1.67
2022-08-24T16:39:55.688Z,1.50
2022-08-24T16:42:27.005Z,1.58
2022-08-24T16:44:56.068Z,1.30
2022-08-24T16:47:25.127Z,1.42
2022-08-24T16:49:53.749Z,1.63
2022-08-24T16:52:22.398Z,1.52
2022-08-24T16:54:51.074Z,1.65
2022-08-24T16:57:22.773Z,1.67
2022-08-24T16:59:53.785Z,1.60
2022-08-24T17:02:23.057Z,1.63
2022-08-24T17:04:51.781Z,1.50
2022-08-24T17:07:22.711Z,1.80
2022-08-24T17:09:51.515Z,1.50
2022-08-24T17:12:20.950Z,1.52
2022-08-24T17:14:49.798Z,1.60
2022-08-24T17:17:22.091Z,1.65
2022-08-24T17:19:53.045Z,1.40
2022-08-24T17:22:21.766Z,1.50
2022-08-24T17:24:50.811Z,1.63
2022-08-24T17:27:20.259Z,1.58
2022-08-24T17:29:49.189Z,1.63
2022-08-24T17:32:18.560Z,1.67
2022-08-24T17:34:48.516Z,1.50
2022-08-24T17:37:17.212Z,1.60
2022-08-24T17:39:45.879Z,1.50
2022-08-24T17:42:34.007Z,1.30
2022-08-24T17:45:03.111Z,1.38
2022-08-24T17:47:33.638Z,1.45
2022-08-24T17:50:06.289Z,1.30
2022-08-24T17:52:35.153Z,1.50
2022-08-24T17:55:03.774Z,1.45
2022-08-24T17:57:32.406Z,1.65
2022-08-24T18:00:00.968Z,1.52
2022-08-24T18:02:29.723Z,1.80
2022-08-24T18:04:59.003Z,1.50
2022-08-24T18:07:49.575Z,1.75
2022-08-24T18:10:19.311Z,1.42
2022-08-24T18:12:47.990Z,1.52
2022-08-24T18:15:16.607Z,1.30
2022-08-24T18:17:46.527Z,1.45
2022-08-24T18:20:15.791Z,1.60
2022-08-24T18:22:47.242Z,1.45
2022-08-24T18:25:20.729Z,1.60
2022-08-24T18:27:50.268Z,1.52
2022-08-24T18:30:21.183Z,1.73
2022-08-24T18:32:52.690Z,1.58
2022-08-24T18:35:21.386Z,1.50
2022-08-24T18:37:51.294Z,1.45
2022-08-24T18:40:21.120Z,1.52
2022-08-24T18:42:50.729Z,1.52
2022-08-24T18:45:19.781Z,1.55
2022-08-24T18:47:53.242Z,1.50
2022-08-24T18:50:22.633Z,1.45
2022-08-24T18:52:52.652Z,1.55
2022-08-24T18:55:21.343Z,1.65
2022-08-24T18:57:50.102Z,1.60
2022-08-24T19:00:18.814Z,1.70
2022-08-24T19:02:47.514Z,1.58
2022-08-24T19:05:18.619Z,1.60
2022-08-24T19:07:48.420Z,1.85
2022-08-24T19:10:20.822Z,1.55
2022-08-24T19:12:51.493Z,1.65
2022-08-24T19:15:30.934Z,1.60
2022-08-24T19:18:08.277Z,1.90
2022-08-24T19:20:37.009Z,1.90
2022-08-24T19:23:08.467Z,1.58
2022-08-24T19:25:39.087Z,1.77
2022-08-24T19:28:07.751Z,1.70
2022-08-24T19:30:36.410Z,1.90
2022-08-24T19:33:07.374Z,1.70
2022-08-24T19:35:38.257Z,2.05
2022-08-24T19:38:06.873Z,1.75
2022-08-24T19:40:35.466Z,1.73
2022-08-24T19:43:05.643Z,1.80
2022-08-24T19:45:54.504Z,1.58
2022-08-24T19:48:24.516Z,1.70
2022-08-24T19:50:54.154Z,2.00
2022-08-24T19:53:22.863Z,2.00
2022-08-24T19:55:51.492Z,2.78
2022-08-24T19:58:24.088Z,2.35
2022-08-24T20:00:57.812Z,2.38
2022-08-24T20:03:26.967Z,2.30
2022-08-24T20:05:55.975Z,2.00
2022-08-24T20:08:24.524Z,2.58
2022-08-24T20:10:58.610Z,2.22
2022-08-24T20:13:28.839Z,2.45
2022-08-24T20:15:57.990Z,2.15
2022-08-24T20:18:28.821Z,2.10
2022-08-24T20:20:57.476Z,2.15
2022-08-24T20:23:26.149Z,2.20
2022-08-24T20:25:54.823Z,2.05
2022-08-24T20:28:33.686Z,2.38
2022-08-24T20:31:07.842Z,2.38
2022-08-24T20:33:36.725Z,2.50
2022-08-24T20:36:05.959Z,2.53
2022-08-24T20:38:34.980Z,2.92
2022-08-24T20:41:03.817Z,3.63
2022-08-24T20:43:33.082Z,3.70
2022-08-24T20:46:01.927Z,3.78
2022-08-24T20:48:33.944Z,3.30
2022-08-24T20:51:02.629Z,2.90
2022-08-24T20:53:31.275Z,2.95
2022-08-24T20:56:09.755Z,3.00
2022-08-24T20:58:39.091Z,2.35
2022-08-24T21:01:08.356Z,2.63
2022-08-24T21:03:38.481Z,2.83
2022-08-24T21:06:08.084Z,2.60
2022-08-24T21:08:37.181Z,2.75
2022-08-24T21:11:06.510Z,2.47
2022-08-24T21:13:35.282Z,2.50
2022-08-24T21:16:06.475Z,2.97
2022-08-24T21:18:35.146Z,2.92
2022-08-24T21:21:05.194Z,2.50
2022-08-24T21:23:34.246Z,2.70
2022-08-24T21:26:03.429Z,2.45
2022-08-24T21:28:32.636Z,2.70
2022-08-24T21:31:05.654Z,2.80
2022-08-24T21:33:52.077Z,2.72
2022-08-24T21:36:23.473Z,2.65
2022-08-24T21:38:53.618Z,2.70
2022-08-24T21:41:23.523Z,2.70
2022-08-24T21:43:52.170Z,2.55
2022-08-24T21:46:20.855Z,2.78
2022-08-24T21:48:49.500Z,2.70
2022-08-24T21:51:18.125Z,2.83
2022-08-24T21:53:48.125Z,2.38
2022-08-24T21:56:19.164Z,2.95
2022-08-24T21:58:47.861Z,2.88
2022-08-24T22:01:16.956Z,2.35
2022-08-24T22:03:45.591Z,2.42
2022-08-24T22:06:14.573Z,2.40
2022-08-24T22:08:43.946Z,2.50
2022-08-24T22:11:15.157Z,2.30
2022-08-24T22:13:43.782Z,2.53
2022-08-24T22:16:13.315Z,2.40
2022-08-24T22:18:42.327Z,2.40
2022-08-24T22:21:12.021Z,2.25
2022-08-24T22:23:40.937Z,2.30
2022-08-24T22:26:10.355Z,2.75
2022-08-24T22:28:41.338Z,2.40
2022-08-24T22:31:17.268Z,1.95
2022-08-24T22:33:45.983Z,2.05
2022-08-24T22:36:15.787Z,2.60
2022-08-24T22:38:44.544Z,2.03
2022-08-24T22:41:13.489Z,2.13
2022-08-24T22:44:01.166Z,2.25
2022-08-24T22:46:30.039Z,2.10
2022-08-24T22:48:58.803Z,2.22
2022-08-24T22:51:27.688Z,1.90
2022-08-24T22:53:56.691Z,2.47
2022-08-24T22:56:26.613Z,1.98
2022-08-24T22:58:56.692Z,1.88
2022-08-24T23:01:26.730Z,2.50
2022-08-24T23:03:55.747Z,2.20
2022-08-24T23:06:24.673Z,1.90
2022-08-24T23:08:53.262Z,2.10
2022-08-24T23:11:24.594Z,2.08
2022-08-24T23:13:53.281Z,1.88
2022-08-24T23:16:23.469Z,2.05
2022-08-24T23:19:09.942Z,2.10
2022-08-24T23:21:38.733Z,1.80
2022-08-24T23:24:07.964Z,1.95
2022-08-24T23:26:37.440Z,2.35
2022-08-24T23:29:06.198Z,2.35
2022-08-24T23:31:36.648Z,2.13
2022-08-24T23:34:07.894Z,2.25
2022-08-24T23:36:37.088Z,2.33
2022-08-24T23:39:06.759Z,2.20
2022-08-24T23:41:36.973Z,2.00
2022-08-24T23:44:07.157Z,2.15
2022-08-24T23:46:37.455Z,2.30
2022-08-24T23:49:06.112Z,2.08
2022-08-24T23:51:34.802Z,2.03
2022-08-24T23:54:03.447Z,2.20
2022-08-24T23:56:36.013Z,2.08
2022-08-24T23:59:06.911Z,2.35
